• Join FlightAware (Why Join?)
  • Login
  • US Flag 
11:42PM EST


 

Airport Tracker/Info


-or-


 

Live Flight TrackerFlight Track Log ✈ KAP927 ✈ 23-Aug-2013 ✈ KALB - KBOS

Flight Track Log - Related Links

Times and Time Zones

All times are in EDT time to prevent confusion due to time zone crossing. See the KAP927 flight status page for this flight to view local times or setup timezone preferences in your user account.

Time Position Orientation Groundspeed Altitude Reporting Facility
EDT Latitude Longitude Course Direction KTS MPH feet Rate Location/Type
08:24AM 42.7453 -73.7433 101° East 116 133 1,400  Level Boston Center
08:25AM 42.7394 -73.7008 101° East 117 135 2,100 720 Climbing Boston Center
08:26AM 42.7378 -73.6528 93° East 117 135 2,900 660 Climbing Boston Center
08:27AM 42.7319 -73.6103 101° East 121 139 3,500 540 Climbing Boston Center
08:28AM 42.7242 -73.5619 102° East 129 148 4,100 540 Climbing Boston Center
08:29AM 42.7164 -73.5083 101° East 139 160 4,600 540 Climbing Boston Center
08:30AM 42.7083 -73.4572 102° East 141 162 5,200 480 Climbing Boston Center
08:31AM 42.7028 -73.4036 98° East 147 169 5,600 300 Climbing Boston Center
08:32AM 42.6969 -73.3442 98° East 157 181 5,900 240 Climbing Boston Center
08:33AM 42.6850 -73.2817 105° East 160 184 6,200 300 Climbing Boston Center
08:34AM 42.6750 -73.2194 102° East 167 192 6,600 300 Climbing Boston Center
08:35AM 42.6692 -73.1572 97° East 167 192 6,900 180 Climbing Boston Center
08:36AM 42.6631 -73.1036 99° East 178 205 7,000 240 Climbing Boston Center
08:37AM 42.6553 -73.0442 100° East 178 205 7,400 240 Climbing Boston Center
08:38AM 42.6472 -72.9650 98° East 179 206 7,500 60 Climbing Boston Center
08:39AM 42.6392 -72.9031 100° East 184 212 7,600  Climbing Boston Center
08:40AM 42.6311 -72.8322 99° East 184 212 7,600  Level Boston Center
08:41AM 42.6208 -72.7589 101° East 184 212 7,600 -60 Level Boston Center
08:42AM 42.6128 -72.6939 100° East 178 205 7,500 -60 Descending Boston Center
08:43AM 42.6044 -72.6292 100° East 171 197 7,500  Level Boston Center
08:44AM 42.5961 -72.5697 101° East 171 197 7,600  Climbing Boston Center
08:45AM 42.5839 -72.5050 104° East 166 191 7,500 -60 Descending Boston Center
08:46AM 42.5733 -72.4344 101° East 166 191 7,500  Level Boston Center
08:47AM 42.5631 -72.3753 103° East 166 191 7,600  Climbing Boston Center
08:48AM 42.5503 -72.3075 104° East 167 192 7,500 -60 Descending Boston Center
08:49AM 42.5419 -72.2569 103° East 161 185 7,500 -120 Level Boston Center
08:50AM 42.5356 -72.1978 98° East 161 185 7,300 -240 Descending Boston Center
08:51AM 42.5250 -72.1275 101° East 167 192 7,100 -240 Descending Boston Center
08:52AM 42.5186 -72.0683 98° East 167 192 6,900 -240 Descending Boston Center
08:53AM 42.5119 -71.9978 97° East 167 192 6,700 -300 Descending Boston Center
08:54AM 42.5056 -71.9417 99° East 161 185 6,400 -360 Descending Boston Center
08:55AM 42.4928 -71.8742 104° East 161 185 6,000 -420 Descending Boston Center
08:56AM 42.4861 -71.8178 99° East 161 185 5,600 -300 Descending Boston Center
08:57AM 42.4794 -71.7475 97° East 161 185 5,500 -60 Descending Boston Center
08:58AM 42.4814 -71.6997 87° East 155 178 5,500  Level Boston Center
08:59AM 42.4850 -71.6350 86° East 155 178 5,600  Climbing Boston Center
09:00AM 42.4931 -71.5842 78° East 155 178 5,500 -60 Descending Boston Center
09:01AM 42.5008 -71.5219 80° East 155 178 5,500 -180 Level Boston Center
09:02AM 42.5108 -71.4683 76° East 155 178 5,200 -360 Descending Boston Center
09:03AM 42.5208 -71.4006 79° East 163 188 4,800 -360 Descending Boston Center
09:04AM 42.5306 -71.3497 75° East 163 188 4,500 -180 Descending Boston Center
09:05AM 42.5406 -71.2875 78° East 163 188 4,500 -240 Level Boston Center
09:06AM 42.5500 -71.2167 80° East 157 181 4,100 -360 Descending KA90
09:07AM 42.5667 -71.1500 71° East 158 182 3,800 -300 Descending KA90
09:08AM 42.5500 -71.1000 114° Southeast 165 190 3,500 -180 Descending KA90
09:09AM 42.5500 -71.0333 90° East 158 182 3,500  Level KA90
09:10AM 42.5333 -70.9833 114° Southeast 154 177 3,500 -300 Level KA90
09:11AM 42.4833 -70.9500 154° Southeast 171 197 3,000 -480 Descending KA90
09:12AM 42.4500 -70.9333 160° South 174 200 2,600 -480 Descending KA90
09:13AM 42.4000 -70.9000 154° Southeast 175 201 2,200 -360 Descending KA90
09:14AM 42.3667 -70.8667 144° Southeast 171 197 1,900 -120 Descending KA90
09:15AM 42.3333 -70.8333 144° Southeast 159 183 2,000  Climbing KA90
09:16AM 42.2833 -70.8167 166° South 160 184 2,000  Level KA90
09:17AM 42.2667 -70.8333 217° Southwest 150 173 2,000 -120 Level KA90
09:18AM 42.3000 -70.8667 324° Northwest 143 165 1,800 -360 Descending KA90
09:19AM 42.3167 -70.9167 294° West 158 182 1,300 -600 Descending KA90
09:20AM 42.3500 -70.9667 312° West 142 163 600 -720 Descending KA90
09:22AM 42.3500 -71.0000 296° West  Level FlightAware Approximate
09:29AM 42.3630 -71.0064 296° West  Level Estimated